PWSweather.com
Personal Weather Stations
Station Observations
KGRPEEBLES
PeeblesGB EH45 9LX

PeeblesGB EH45 9LX

Lat: 55.64096, Lon: -3.170893

Elevation: 517

Station Type: Watson W-8681

Latest ConditionsUpdated 8:30:02 PM GMT Monday, Sep 23, 2019
Currently Today's Max Today's Min Today's Average
Temperature 57.4°F14.1°C 67.8°F19.9°C 54.1°F12.3°C 59.8°F15.4°C
Dew Point 50.2°F10.1°C 51.3°F10.7°C -1.2°F-18.4°C 26.0°F-3.3°C
Winds 3.1 mph WSW5.0 kmh WSW 8.1 mph -13.0 kmh - - 2.9 mph 4.7 kmh
Wind Gusts 6.0 mph9.7 kmh 15.9 mph25.6 kmh - -
Humidity 77% 77% 10% 37%
Pressure 29.47 in998.0 mb 29.56 in1001.0 mb 29.46 in997.6 mb -
Hour Temp Dew Point Humidity Winds Wind Gusts Pressure Precip Precip Rate Daily Precip Total
08:30 PM 57.4°F14.1°C 50.2°F10.1°C 77% 3.1 mph WSW5.0 kmh WSW 6.0 mph9.7 kmh 29.47 in998.0 mb 0.00 in0.0 mm 0.00 in0.0 mm 0.00 in0.0 mm
08:15 PM 57.4°F14.1°C 50.2°F10.1°C 77% 2.7 mph NE4.3 kmh NE 3.8 mph6.1 kmh 29.48 in998.3 mb 0.00 in0.0 mm 0.00 in0.0 mm 0.00 in0.0 mm
08:00 PM 57.4°F14.1°C 50.2°F10.1°C 77% 2.3 mph E3.7 kmh E 4.5 mph7.2 kmh 29.49 in998.6 mb 0.00 in0.0 mm 0.00 in0.0 mm 0.00 in0.0 mm
07:45 PM 57.2°F14.0°C 50.1°F10.1°C 77% 1.5 mph NE2.4 kmh NE 2.2 mph3.5 kmh 29.49 in998.6 mb 0.00 in0.0 mm 0.00 in0.0 mm 0.00 in0.0 mm
07:30 PM 57.2°F14.0°C 50.1°F10.1°C 77% 1.3 mph ENE2.1 kmh ENE 3.8 mph6.1 kmh 29.49 in998.6 mb 0.00 in0.0 mm 0.00 in0.0 mm 0.00 in0.0 mm
07:15 PM 57.4°F14.1°C 50.2°F10.1°C 77% 1.5 mph SE2.4 kmh SE 2.2 mph3.5 kmh 29.50 in999.0 mb 0.00 in0.0 mm 0.00 in0.0 mm 0.00 in0.0 mm
07:00 PM 57.6°F14.2°C 50.4°F10.2°C 77% 1.5 mph SE2.4 kmh SE 2.2 mph3.5 kmh 29.51 in999.3 mb 0.00 in0.0 mm 0.00 in0.0 mm 0.00 in0.0 mm
06:45 PM 57.6°F14.2°C 50.4°F10.2°C 77% 1.8 mph ENE2.9 kmh ENE 2.2 mph3.5 kmh 29.50 in999.0 mb 0.00 in0.0 mm 0.00 in0.0 mm 0.00 in0.0 mm
06:30 PM 57.7°F14.3°C 50.2°F10.1°C 76% 0.5 mph SE0.8 kmh SE 1.6 mph2.6 kmh 29.51 in999.3 mb 0.00 in0.0 mm 0.00 in0.0 mm 0.00 in0.0 mm
06:15 PM 58.3°F14.6°C 50.4°F10.2°C 75% 1.9 mph ESE3.1 kmh ESE 3.1 mph5.0 kmh 29.51 in999.3 mb 0.00 in0.0 mm 0.00 in0.0 mm 0.00 in0.0 mm
06:00 PM 58.8°F14.9°C 50.6°F10.3°C 74% 1.9 mph ESE3.1 kmh ESE 3.1 mph5.0 kmh 29.52 in999.7 mb 0.00 in0.0 mm 0.00 in0.0 mm 0.00 in0.0 mm
05:45 PM 59.4°F15.2°C 50.7°F10.4°C 73% 2.3 mph SE3.7 kmh SE 3.8 mph6.1 kmh 29.52 in999.7 mb 0.00 in0.0 mm 0.00 in0.0 mm 0.00 in0.0 mm
05:30 PM 60.3°F15.7°C 50.8°F10.4°C 71% 3.0 mph SE4.8 kmh SE 4.5 mph7.2 kmh 29.53 in1000.0 mb 0.00 in0.0 mm 0.00 in0.0 mm 0.00 in0.0 mm
05:15 PM 61.0°F16.1°C 51.1°F10.6°C 70% 2.5 mph SE4.0 kmh SE 3.8 mph6.1 kmh 29.52 in999.7 mb 0.00 in0.0 mm 0.00 in0.0 mm 0.00 in0.0 mm
05:00 PM 61.5°F16.4°C 50.9°F10.5°C 68% 4.7 mph SSE7.6 kmh SSE 7.6 mph12.2 kmh 29.53 in1000.0 mb 0.00 in0.0 mm 0.00 in0.0 mm 0.00 in0.0 mm
04:45 PM 62.8°F17.1°C 50.4°F10.2°C 64% 3.8 mph SSE6.1 kmh SSE 7.6 mph12.2 kmh 29.53 in1000.0 mb 0.00 in0.0 mm 0.00 in0.0 mm 0.00 in0.0 mm
04:30 PM 63.7°F17.6°C 51.3°F10.7°C 64% 2.8 mph SSE4.5 kmh SSE 6.0 mph9.7 kmh 29.53 in1000.0 mb 0.00 in0.0 mm 0.00 in0.0 mm 0.00 in0.0 mm
04:15 PM 63.1°F17.3°C 51.2°F10.7°C 65% 3.9 mph SSE6.3 kmh SSE 6.9 mph11.1 kmh 29.53 in1000.0 mb 0.00 in0.0 mm 0.00 in0.0 mm 0.00 in0.0 mm
04:00 PM 62.8°F17.1°C 50.4°F10.2°C 64% 3.3 mph S5.3 kmh S 4.5 mph7.2 kmh 29.54 in1000.3 mb 0.00 in0.0 mm 0.00 in0.0 mm 0.00 in0.0 mm
03:45 PM 63.5°F17.5°C 50.3°F10.2°C 62% 3.5 mph SSE5.6 kmh SSE 6.0 mph9.7 kmh 29.54 in1000.3 mb 0.00 in0.0 mm 0.00 in0.0 mm 0.00 in0.0 mm
03:30 PM 63.0°F17.2°C 49.8°F9.9°C 62% 5.2 mph SSE8.4 kmh SSE 7.6 mph12.2 kmh 29.54 in1000.3 mb 0.00 in0.0 mm 0.00 in0.0 mm 0.00 in0.0 mm
03:15 PM 64.2°F17.9°C 50.5°F10.3°C 61% 4.3 mph SSE6.9 kmh SSE 6.9 mph11.1 kmh 29.54 in1000.3 mb 0.00 in0.0 mm 0.00 in0.0 mm 0.00 in0.0 mm
03:00 PM 62.8°F17.1°C 50.0°F10.0°C 63% 4.4 mph S7.1 kmh S 6.0 mph9.7 kmh 29.55 in1000.7 mb 0.00 in0.0 mm 0.00 in0.0 mm 0.00 in0.0 mm
02:45 PM 62.4°F16.9°C 49.2°F9.6°C 62% 3.6 mph SSE5.8 kmh SSE 6.0 mph9.7 kmh 29.55 in1000.7 mb 0.00 in0.0 mm 0.00 in0.0 mm 0.00 in0.0 mm
02:30 PM 63.1°F17.3°C 48.1°F8.9°C 58% 5.4 mph SSE8.7 kmh SSE 9.8 mph15.8 kmh 29.55 in1000.7 mb 0.00 in0.0 mm 0.00 in0.0 mm 0.00 in0.0 mm
02:15 PM 64.2°F17.9°C 48.2°F9.0°C 56% 5.3 mph SSE8.5 kmh SSE 8.3 mph13.4 kmh 29.55 in1000.7 mb 0.00 in0.0 mm 0.00 in0.0 mm 0.00 in0.0 mm
02:00 PM 62.6°F17.0°C 47.6°F8.7°C 58% 5.2 mph SSE8.4 kmh SSE 6.9 mph11.1 kmh 29.55 in1000.7 mb 0.00 in0.0 mm 0.00 in0.0 mm 0.00 in0.0 mm
01:45 PM 63.7°F17.6°C 48.2°F9.0°C 57% 6.8 mph SSE10.9 kmh SSE 12.1 mph19.5 kmh 29.56 in1001.0 mb 0.00 in0.0 mm 0.00 in0.0 mm 0.00 in0.0 mm
01:30 PM 65.1°F18.4°C 46.6°F8.1°C 51% 6.5 mph S10.5 kmh S 10.7 mph17.2 kmh 29.56 in1001.0 mb 0.00 in0.0 mm 0.00 in0.0 mm 0.00 in0.0 mm
01:15 PM 66.6°F19.2°C 46.3°F7.9°C 48% 8.1 mph S13.0 kmh S 15.9 mph25.6 kmh 29.56 in1001.0 mb 0.00 in0.0 mm 0.00 in0.0 mm 0.00 in0.0 mm
01:00 PM 63.7°F17.6°C 45.7°F7.6°C 52% 7.1 mph SSE11.4 kmh SSE 13.0 mph20.9 kmh 29.56 in1001.0 mb 0.00 in0.0 mm 0.00 in0.0 mm 0.00 in0.0 mm
12:45 PM 64.2°F17.9°C 46.2°F7.9°C 52% 4.1 mph SSE6.6 kmh SSE 6.0 mph9.7 kmh 29.56 in1001.0 mb 0.00 in0.0 mm 0.00 in0.0 mm 0.00 in0.0 mm
12:30 PM 64.4°F18.0°C 45.4°F7.4°C 50% 7.2 mph SSE11.6 kmh SSE 12.1 mph19.5 kmh 29.56 in1001.0 mb 0.00 in0.0 mm 0.00 in0.0 mm 0.00 in0.0 mm
12:15 PM 62.4°F16.9°C 45.6°F7.6°C 54% 5.5 mph S8.9 kmh S 14.5 mph23.3 kmh 29.56 in1001.0 mb 0.00 in0.0 mm 0.00 in0.0 mm 0.00 in0.0 mm
12:00 PM 64.2°F17.9°C 44.7°F7.1°C 49% 4.9 mph S7.9 kmh S 6.9 mph11.1 kmh 29.55 in1000.7 mb 0.00 in0.0 mm 0.00 in0.0 mm 0.00 in0.0 mm
11:45 AM 62.2°F16.8°C 42.3°F5.7°C 48% 5.0 mph S8.0 kmh S 8.3 mph13.4 kmh 29.56 in1001.0 mb 0.00 in0.0 mm 0.00 in0.0 mm 0.00 in0.0 mm
11:30 AM 63.0°F17.2°C 42.4°F5.8°C 47% 5.3 mph SSW8.5 kmh SSW 12.1 mph19.5 kmh 29.55 in1000.7 mb 0.00 in0.0 mm 0.00 in0.0 mm 0.00 in0.0 mm
11:15 AM 62.6°F17.0°C 42.7°F5.9°C 48% 4.7 mph SW7.6 kmh SW 9.8 mph15.8 kmh 29.56 in1001.0 mb 0.00 in0.0 mm 0.00 in0.0 mm 0.00 in0.0 mm
11:00 AM 62.2°F16.8°C 40.1°F4.5°C 44% 4.7 mph SSW7.6 kmh SSW 8.3 mph13.4 kmh 29.55 in1000.7 mb 0.00 in0.0 mm 0.00 in0.0 mm 0.00 in0.0 mm
10:45 AM 64.9°F18.3°C 39.4°F4.1°C 39% 4.1 mph S6.6 kmh S 6.9 mph11.1 kmh 29.55 in1000.7 mb 0.00 in0.0 mm 0.00 in0.0 mm 0.00 in0.0 mm
10:30 AM 63.0°F17.2°C 41.3°F5.2°C 45% 3.4 mph SE5.5 kmh SE 14.5 mph23.3 kmh 29.56 in1001.0 mb 0.00 in0.0 mm 0.00 in0.0 mm 0.00 in0.0 mm
10:15 AM 67.8°F19.9°C 34.4°F1.3°C 29% 5.8 mph WSW9.3 kmh WSW 6.0 mph9.7 kmh 29.56 in1001.0 mb 0.00 in0.0 mm 0.00 in0.0 mm 0.00 in0.0 mm
10:00 AM 67.6°F19.8°C 32.5°F0.3°C 27% 5.5 mph SSW8.9 kmh SSW 8.3 mph13.4 kmh 29.55 in1000.7 mb 0.00 in0.0 mm 0.00 in0.0 mm 0.00 in0.0 mm
09:45 AM 66.2°F19.0°C 26.3°F-3.2°C 22% 1.7 mph NNW2.7 kmh NNW 2.2 mph3.5 kmh 29.55 in1000.7 mb 0.00 in0.0 mm 0.00 in0.0 mm 0.00 in0.0 mm
09:30 AM 66.2°F19.0°C 26.3°F-3.2°C 22% 2.1 mph NE3.4 kmh NE 3.1 mph5.0 kmh 29.54 in1000.3 mb 0.00 in0.0 mm 0.00 in0.0 mm 0.00 in0.0 mm
09:15 AM 63.7°F17.6°C 20.7°F-6.3°C 19% 3.6 mph SSW5.8 kmh SSW 8.3 mph13.4 kmh 29.54 in1000.3 mb 0.00 in0.0 mm 0.00 in0.0 mm 0.00 in0.0 mm
09:00 AM 62.2°F16.8°C 19.5°F-6.9°C 19% 2.3 mph N3.7 kmh N 3.8 mph6.1 kmh 29.55 in1000.7 mb 0.00 in0.0 mm 0.00 in0.0 mm 0.00 in0.0 mm
08:45 AM 59.9°F15.5°C 7.2°F-13.8°C 12% 2.6 mph ENE4.2 kmh ENE 3.8 mph6.1 kmh 29.54 in1000.3 mb 0.00 in0.0 mm 0.00 in0.0 mm 0.00 in0.0 mm
08:30 AM 59.9°F15.5°C 3.2°F-16.0°C 10% 3.1 mph SE5.0 kmh SE 5.4 mph8.7 kmh 29.54 in1000.3 mb 0.00 in0.0 mm 0.00 in0.0 mm 0.00 in0.0 mm
08:15 AM 60.1°F15.6°C 3.4°F-15.9°C 10% 2.5 mph SSW4.0 kmh SSW 5.4 mph8.7 kmh 29.54 in1000.3 mb 0.00 in0.0 mm 0.00 in0.0 mm 0.00 in0.0 mm
08:00 AM 57.9°F14.4°C 1.7°F-16.8°C 10% 4.0 mph SE6.4 kmh SE 6.9 mph11.1 kmh 29.54 in1000.3 mb 0.00 in0.0 mm 0.00 in0.0 mm 0.00 in0.0 mm
07:45 AM 57.6°F14.2°C 1.4°F-17.0°C 10% 3.6 mph SSE5.8 kmh SSE 6.9 mph11.1 kmh 29.54 in1000.3 mb 0.00 in0.0 mm 0.00 in0.0 mm 0.00 in0.0 mm
07:30 AM 57.4°F14.1°C 1.3°F-17.1°C 10% 0.6 mph SE1.0 kmh SE 3.1 mph5.0 kmh 29.53 in1000.0 mb 0.00 in0.0 mm 0.00 in0.0 mm 0.00 in0.0 mm
07:15 AM 57.0°F13.9°C 1.0°F-17.2°C 10% 3.0 mph SSE4.8 kmh SSE 5.4 mph8.7 kmh 29.53 in1000.0 mb 0.00 in0.0 mm 0.00 in0.0 mm 0.00 in0.0 mm
07:00 AM 56.8°F13.8°C 0.9°F-17.3°C 10% 4.2 mph SSE6.8 kmh SSE 8.3 mph13.4 kmh 29.53 in1000.0 mb 0.00 in0.0 mm 0.00 in0.0 mm 0.00 in0.0 mm
06:45 AM 56.3°F13.5°C 0.5°F-17.5°C 10% 4.5 mph S7.2 kmh S 7.6 mph12.2 kmh 29.53 in1000.0 mb 0.00 in0.0 mm 0.00 in0.0 mm 0.00 in0.0 mm
06:30 AM 56.1°F13.4°C 0.3°F-17.6°C 10% 1.7 mph SE2.7 kmh SE 3.1 mph5.0 kmh 29.53 in1000.0 mb 0.00 in0.0 mm 0.00 in0.0 mm 0.00 in0.0 mm
06:15 AM 55.9°F13.3°C 0.2°F-17.7°C 10% 0.8 mph NNE1.3 kmh NNE 2.2 mph3.5 kmh 29.52 in999.7 mb 0.00 in0.0 mm 0.00 in0.0 mm 0.00 in0.0 mm
06:00 AM 55.6°F13.1°C -0.1°F-17.8°C 10% 2.2 mph SSE3.5 kmh SSE 4.5 mph7.2 kmh 29.52 in999.7 mb 0.00 in0.0 mm 0.00 in0.0 mm 0.00 in0.0 mm
05:45 AM 55.0°F12.8°C -0.5°F-18.1°C 10% 4.0 mph ESE6.4 kmh ESE 8.3 mph13.4 kmh 29.52 in999.7 mb 0.00 in0.0 mm 0.00 in0.0 mm 0.00 in0.0 mm
05:30 AM 54.9°F12.7°C -0.6°F-18.1°C 10% 1.5 mph S2.4 kmh S 3.1 mph5.0 kmh 29.51 in999.3 mb 0.00 in0.0 mm 0.00 in0.0 mm 0.00 in0.0 mm
05:15 AM 54.3°F12.4°C -1.1°F-18.4°C 10% 2.4 mph SSW3.9 kmh SSW 3.8 mph6.1 kmh 29.50 in999.0 mb 0.00 in0.0 mm 0.00 in0.0 mm 0.00 in0.0 mm
05:00 AM 54.1°F12.3°C -1.2°F-18.4°C 10% 1.3 mph NE2.1 kmh NE 2.2 mph3.5 kmh 29.49 in998.6 mb 0.00 in0.0 mm 0.00 in0.0 mm 0.00 in0.0 mm
04:45 AM 54.7°F12.6°C -0.8°F-18.2°C 10% 1.8 mph NE2.9 kmh NE 3.8 mph6.1 kmh 29.49 in998.6 mb 0.00 in0.0 mm 0.00 in0.0 mm 0.00 in0.0 mm
04:30 AM 55.0°F12.8°C -0.5°F-18.1°C 10% 2.3 mph SE3.7 kmh SE 6.0 mph9.7 kmh 29.50 in999.0 mb 0.00 in0.0 mm 0.00 in0.0 mm 0.00 in0.0 mm
04:15 AM 54.9°F12.7°C -0.6°F-18.1°C 10% 0.8 mph SSE1.3 kmh SSE 2.2 mph3.5 kmh 29.48 in998.3 mb 0.00 in0.0 mm 0.00 in0.0 mm 0.00 in0.0 mm
04:00 AM 55.8°F13.2°C 0.1°F-17.7°C 10% 0.1 mph SE0.2 kmh SE 0.7 mph1.1 kmh 29.48 in998.3 mb 0.00 in0.0 mm 0.00 in0.0 mm 0.00 in0.0 mm
03:45 AM 56.5°F13.6°C 0.6°F-17.4°C 10% 1.8 mph SE2.9 kmh SE 3.1 mph5.0 kmh 29.49 in998.6 mb 0.00 in0.0 mm 0.00 in0.0 mm 0.00 in0.0 mm
03:30 AM 56.5°F13.6°C 0.6°F-17.4°C 10% 1.6 mph SE2.6 kmh SE 3.8 mph6.1 kmh 29.49 in998.6 mb 0.00 in0.0 mm 0.00 in0.0 mm 0.00 in0.0 mm
03:15 AM 56.5°F13.6°C 0.6°F-17.4°C 10% 1.8 mph NE2.9 kmh NE 3.8 mph6.1 kmh 29.48 in998.3 mb 0.00 in0.0 mm 0.00 in0.0 mm 0.00 in0.0 mm
03:00 AM 56.1°F13.4°C 0.3°F-17.6°C 10% 0.3 mph SE0.5 kmh SE 1.6 mph2.6 kmh 29.48 in998.3 mb 0.00 in0.0 mm 0.00 in0.0 mm 0.00 in0.0 mm
02:45 AM 56.1°F13.4°C 0.3°F-17.6°C 10% 1.0 mph SSE1.6 kmh SSE 2.2 mph3.5 kmh 29.48 in998.3 mb 0.00 in0.0 mm 0.00 in0.0 mm 0.00 in0.0 mm
02:30 AM 56.3°F13.5°C 0.5°F-17.5°C 10% 0.4 mph SSE0.6 kmh SSE 1.6 mph2.6 kmh 29.48 in998.3 mb 0.00 in0.0 mm 0.00 in0.0 mm 0.00 in0.0 mm
02:15 AM 56.8°F13.8°C 0.9°F-17.3°C 10% Calm Calm 0.7 mph1.1 kmh 29.49 in998.6 mb 0.00 in0.0 mm 0.00 in0.0 mm 0.00 in0.0 mm
02:00 AM 56.7°F13.7°C 0.7°F-17.4°C 10% Calm Calm -- 29.48 in998.3 mb 0.00 in0.0 mm 0.00 in0.0 mm 0.00 in0.0 mm
01:45 AM 56.8°F13.8°C 0.9°F-17.3°C 10% 0.3 mph SE0.5 kmh SE 1.6 mph2.6 kmh 29.48 in998.3 mb 0.00 in0.0 mm 0.00 in0.0 mm 0.00 in0.0 mm
01:30 AM 56.8°F13.8°C 0.9°F-17.3°C 10% 0.3 mph SE0.5 kmh SE 0.7 mph1.1 kmh 29.48 in998.3 mb 0.00 in0.0 mm 0.00 in0.0 mm 0.00 in0.0 mm
01:15 AM 56.5°F13.6°C 0.6°F-17.4°C 10% Calm Calm -- 29.48 in998.3 mb 0.00 in0.0 mm 0.00 in0.0 mm 0.00 in0.0 mm
01:00 AM 57.0°F13.9°C 1.0°F-17.2°C 10% 0.7 mph SE1.1 kmh SE 1.6 mph2.6 kmh 29.48 in998.3 mb 0.00 in0.0 mm 0.00 in0.0 mm 0.00 in0.0 mm
12:45 AM 57.2°F14.0°C 1.2°F-17.1°C 10% 0.1 mph E0.2 kmh E 0.7 mph1.1 kmh 29.48 in998.3 mb 0.00 in0.0 mm 0.00 in0.0 mm 0.00 in0.0 mm
12:30 AM 57.6°F14.2°C 1.4°F-17.0°C 10% 0.1 mph E0.2 kmh E 0.7 mph1.1 kmh 29.47 in998.0 mb 0.00 in0.0 mm 0.00 in0.0 mm 0.00 in0.0 mm
12:15 AM 57.9°F14.4°C 1.7°F-16.8°C 10% 0.7 mph S1.1 kmh S 2.2 mph3.5 kmh 29.47 in998.0 mb 0.00 in0.0 mm 0.00 in0.0 mm 0.00 in0.0 mm
12:00 AM 58.5°F14.7°C 2.1°F-16.6°C 10% 0.9 mph SSE1.4 kmh SSE 2.2 mph3.5 kmh 29.46 in997.6 mb 0.00 in0.0 mm 0.00 in0.0 mm 0.00 in0.0 mm